createdAt,value
2023-05-06T00:04:57.811Z,1084.74074
2023-05-06T00:09:59.143Z,1176
2023-05-06T00:15:00.539Z,1254.6383
2023-05-06T00:20:01.846Z,1523.48718
2023-05-06T00:25:03.204Z,1608.86486
2023-05-06T00:30:04.427Z,1446.43902
2023-05-06T00:35:05.833Z,1344
2023-05-06T00:40:07.413Z,1201.14286
2023-05-06T00:45:08.890Z,1227.33333
2023-05-06T00:50:10.281Z,1084.74074
2023-05-06T00:55:11.697Z,988.0678
2023-05-06T01:00:13.043Z,1106.26415
2023-05-06T01:05:14.301Z,1024.70175
2023-05-06T01:10:15.856Z,1006.06897
2023-05-06T01:15:17.137Z,906.5
2023-05-06T01:20:18.408Z,953.83607
2023-05-06T01:25:19.706Z,906.5
2023-05-06T01:30:21.035Z,1006.06897
2023-05-06T01:35:22.282Z,937.54839
2023-05-06T01:40:23.542Z,863.40299
2023-05-06T01:45:24.936Z,1201.14286
2023-05-06T01:50:26.193Z,1044
2023-05-06T01:55:27.524Z,970.66667
2023-05-06T02:00:28.745Z,970.66667
2023-05-06T02:05:29.982Z,1006.06897
2023-05-06T02:10:31.227Z,921.77778
2023-05-06T02:15:32.668Z,1024.70175
2023-05-06T02:20:34.018Z,1006.06897
2023-05-06T02:25:35.433Z,1024.70175
2023-05-06T02:30:36.786Z,1006.06897
2023-05-06T02:35:38.113Z,1024.70175
2023-05-06T02:40:39.484Z,1151.84314
2023-05-06T02:45:40.773Z,1227.33333
2023-05-06T02:50:42.095Z,1344
2023-05-06T02:55:43.695Z,1523.48718
2023-05-06T03:00:44.932Z,1810.66667
2023-05-06T03:05:46.337Z,1704
2023-05-06T03:10:47.796Z,1869
2023-05-06T03:15:49.020Z,1608.86486
2023-05-06T03:20:50.270Z,1283.13043
2023-05-06T03:25:51.952Z,1410.66667
2023-05-06T03:30:53.341Z,1128.61538
2023-05-06T03:35:54.608Z,1084.74074
2023-05-06T03:40:55.879Z,1128.61538
2023-05-06T03:45:57.148Z,1106.26415
2023-05-06T03:50:58.507Z,1283.13043
2023-05-06T03:55:59.807Z,1254.6383
2023-05-06T04:01:01.170Z,1227.33333
2023-05-06T04:06:02.429Z,1064
2023-05-06T04:11:03.804Z,1024.70175
2023-05-06T04:16:05.146Z,906.5
2023-05-06T04:21:06.476Z,921.77778
2023-05-06T04:26:07.751Z,906.5
2023-05-06T04:31:09.029Z,953.83607
2023-05-06T04:36:10.320Z,953.83607
2023-05-06T04:41:11.914Z,1044
2023-05-06T04:46:13.223Z,953.83607
2023-05-06T04:51:14.509Z,937.54839
2023-05-06T04:56:15.809Z,877.33333
2023-05-06T05:01:17.086Z,921.77778
2023-05-06T05:06:18.376Z,754.52632
2023-05-06T05:11:19.784Z,811.60563
2023-05-06T05:16:21.091Z,744
2023-05-06T05:21:22.526Z,733.74359
2023-05-06T05:26:23.810Z,733.74359
2023-05-06T05:31:25.089Z,733.74359
2023-05-06T05:36:26.387Z,733.74359
2023-05-06T05:41:27.708Z,863.40299
2023-05-06T05:46:29.008Z,877.33333
2023-05-06T05:51:30.551Z,970.66667
2023-05-06T05:56:31.986Z,906.5
2023-05-06T06:01:33.277Z,824
2023-05-06T06:06:34.535Z,765.33333
2023-05-06T06:11:36.101Z,906.5
2023-05-06T06:16:37.531Z,988.0678
2023-05-06T06:21:38.859Z,906.5
2023-05-06T06:26:40.178Z,1064
2023-05-06T06:31:41.468Z,1128.61538
2023-05-06T06:36:42.745Z,921.77778
2023-05-06T06:41:44.100Z,953.83607
2023-05-06T06:46:45.526Z,937.54839
2023-05-06T06:51:46.839Z,1024.70175
2023-05-06T06:56:48.266Z,877.33333
2023-05-06T07:01:49.551Z,970.66667
2023-05-06T07:06:50.827Z,906.5
2023-05-06T07:11:52.129Z,953.83607
2023-05-06T07:16:53.627Z,1201.14286
2023-05-06T07:21:55.111Z,1151.84314
2023-05-06T07:26:56.402Z,1084.74074
2023-05-06T07:31:57.798Z,1254.6383
2023-05-06T07:36:59.060Z,970.66667
2023-05-06T07:42:00.331Z,1376.55814
2023-05-06T07:47:02.034Z,1704
2023-05-06T07:52:03.720Z,2408
2023-05-06T07:57:05.061Z,3794
2023-05-06T08:02:06.405Z,7644
2023-05-06T08:07:07.737Z,10210.66667
2023-05-06T08:12:09.038Z,20477.33333
2023-05-06T08:17:10.298Z,30744
2023-05-06T08:22:11.580Z,30744
2023-05-06T08:27:12.848Z,61544
2023-05-06T08:32:14.149Z,61544
2023-05-06T08:37:15.474Z,61544
2023-05-06T08:42:16.807Z,30744
2023-05-06T08:47:18.049Z,30744
2023-05-06T08:52:19.304Z,30744
2023-05-06T08:57:20.597Z,20477.33333
2023-05-06T09:02:21.943Z,30744
2023-05-06T09:07:23.518Z,61544
2023-05-06T09:12:24.926Z,0
2023-05-06T09:17:26.364Z,61544
2023-05-06T09:22:27.883Z,61544
2023-05-06T09:27:29.206Z,20477.33333
2023-05-06T09:32:30.531Z,15344
2023-05-06T09:37:31.855Z,6104
2023-05-06T09:42:33.143Z,3794
2023-05-06T09:47:34.594Z,6788.44444
2023-05-06T09:52:35.973Z,10210.66667
2023-05-06T09:57:37.500Z,15344
2023-05-06T10:02:39.043Z,7644
2023-05-06T10:07:40.578Z,10210.66667
2023-05-06T10:12:41.868Z,15344
2023-05-06T10:17:43.215Z,20477.33333
2023-05-06T10:22:44.754Z,10210.66667
2023-05-06T10:27:46.048Z,10210.66667
2023-05-06T10:32:47.656Z,6788.44444
2023-05-06T10:37:48.980Z,4682.46154
2023-05-06T10:42:50.270Z,4344
2023-05-06T10:47:51.828Z,3794
2023-05-06T10:52:53.237Z,3186.10526
2023-05-06T10:57:54.552Z,3024
2023-05-06T11:02:56.244Z,2510.66667
2023-05-06T11:07:57.623Z,3794
2023-05-06T11:12:58.920Z,4344
2023-05-06T11:18:00.282Z,3567.52941
2023-05-06T11:23:01.577Z,4682.46154
2023-05-06T11:28:02.822Z,5077.33333
2023-05-06T11:33:05.531Z,4050.66667
2023-05-06T11:38:07.151Z,3366.22222
2023-05-06T11:43:08.496Z,3567.52941
2023-05-06T11:48:09.784Z,6788.44444
2023-05-06T11:53:11.398Z,10210.66667
2023-05-06T11:58:13.290Z,10210.66667
2023-05-06T12:03:14.694Z,15344
2023-05-06T12:08:26.803Z,20477.33333
2023-05-06T12:13:29.870Z,12264
2023-05-06T12:18:31.489Z,20477.33333
2023-05-06T12:23:33.212Z,12264
2023-05-06T12:28:35.293Z,15344
2023-05-06T12:33:36.963Z,15344
2023-05-06T12:38:38.678Z,12264
2023-05-06T12:43:40.203Z,12264
2023-05-06T12:48:41.524Z,15344
2023-05-06T12:53:42.846Z,12264
2023-05-06T12:58:44.410Z,15344
2023-05-06T13:03:45.864Z,12264
2023-05-06T13:08:47.566Z,7644
2023-05-06T13:13:49.270Z,4344
2023-05-06T13:18:50.987Z,2144
2023-05-06T13:23:52.601Z,1810.66667
2023-05-06T13:28:54.247Z,1755.76471
2023-05-06T13:33:55.920Z,1608.86486
2023-05-06T13:38:57.540Z,1344
2023-05-06T13:43:59.170Z,1755.76471
2023-05-06T13:49:00.852Z,1810.66667
2023-05-06T13:54:02.184Z,1931.09677
2023-05-06T13:59:03.635Z,2225.48148
2023-05-06T14:04:04.983Z,2877.33333
2023-05-06T14:09:06.284Z,2744
2023-05-06T14:14:07.622Z,1128.61538
2023-05-06T14:19:08.968Z,937.54839
2023-05-06T14:24:10.283Z,970.66667
2023-05-06T14:29:11.858Z,1376.55814
2023-05-06T14:34:13.152Z,1106.26415
2023-05-06T14:39:14.490Z,1608.86486
2023-05-06T14:44:15.993Z,1344
2023-05-06T14:49:17.609Z,1484
2023-05-06T14:54:19.025Z,1201.14286
2023-05-06T14:59:20.505Z,1484
2023-05-06T15:04:21.918Z,1006.06897
2023-05-06T15:09:23.525Z,1084.74074
2023-05-06T15:14:25.156Z,1084.74074
2023-05-06T15:19:26.784Z,1084.74074
2023-05-06T15:24:28.410Z,1044
2023-05-06T15:29:29.710Z,921.77778
2023-05-06T15:34:31.077Z,824
2023-05-06T15:39:32.684Z,849.88235
2023-05-06T15:44:34.404Z,811.60563
2023-05-06T15:49:51.412Z,906.5
2023-05-06T15:54:58.842Z,863.40299
2023-05-06T16:00:01.434Z,921.77778
2023-05-06T16:05:02.656Z,953.83607
2023-05-06T16:10:03.969Z,1006.06897
2023-05-06T16:15:05.468Z,877.33333
2023-05-06T16:20:06.836Z,787.83562
2023-05-06T16:25:08.256Z,754.52632
2023-05-06T16:30:09.779Z,1006.06897
2023-05-06T16:35:11.520Z,877.33333
2023-05-06T16:40:13.030Z,877.33333
2023-05-06T16:45:14.456Z,811.60563
2023-05-06T16:50:15.850Z,787.83562
2023-05-06T16:55:17.106Z,754.52632
2023-05-06T17:00:18.537Z,744
2023-05-06T17:05:22.012Z,811.60563
2023-05-06T17:10:23.579Z,787.83562
2023-05-06T17:15:24.900Z,714
2023-05-06T17:20:26.177Z,723.74684
2023-05-06T17:25:27.755Z,776.43243
2023-05-06T17:30:29.316Z,776.43243
2023-05-06T17:35:30.597Z,636.13483
2023-05-06T17:40:32.029Z,723.74684
2023-05-06T17:45:33.536Z,776.43243
2023-05-06T17:50:35.102Z,824
2023-05-06T17:55:36.749Z,787.83562
2023-05-06T18:00:38.345Z,811.60563
2023-05-06T18:05:40.031Z,787.83562
2023-05-06T18:10:41.672Z,660.27907
2023-05-06T18:15:43.392Z,553.90099
2023-05-06T18:20:45.138Z,542.05825
2023-05-06T18:25:46.732Z,525.13208
2023-05-06T18:30:48.322Z,553.90099
2023-05-06T18:35:49.875Z,686.16867
2023-05-06T18:40:51.605Z,765.33333
2023-05-06T18:45:53.356Z,776.43243
2023-05-06T18:50:55.217Z,686.16867
2023-05-06T18:55:56.828Z,644
2023-05-06T19:00:58.764Z,714
2023-05-06T19:06:00.378Z,704.49383
2023-05-06T19:11:02.064Z,723.74684
2023-05-06T19:16:03.583Z,723.74684
2023-05-06T19:21:04.870Z,765.33333
2023-05-06T19:26:06.597Z,754.52632
2023-05-06T19:31:08.487Z,677.33333
2023-05-06T19:36:09.788Z,733.74359
2023-05-06T19:41:11.057Z,695.21951
2023-05-06T19:46:12.607Z,636.13483
2023-05-06T19:51:13.947Z,599.31915
2023-05-06T19:56:15.418Z,572.57143
2023-05-06T20:01:17.037Z,560
2023-05-06T20:06:18.324Z,620.92308
2023-05-06T20:11:19.590Z,677.33333
2023-05-06T20:16:21.389Z,787.83562
2023-05-06T20:21:22.675Z,787.83562
2023-05-06T20:26:25.042Z,765.33333
2023-05-06T20:31:26.490Z,733.74359
2023-05-06T20:36:28.816Z,704.49383
2023-05-06T20:41:30.092Z,644
2023-05-06T20:46:31.568Z,644
2023-05-06T20:51:32.914Z,644
2023-05-06T20:56:34.198Z,652.04598
2023-05-06T21:01:35.548Z,652.04598
2023-05-06T21:06:37.007Z,652.04598
2023-05-06T21:11:38.331Z,620.92308
2023-05-06T21:16:39.781Z,585.66667
2023-05-06T21:21:41.252Z,566.22222
2023-05-06T21:26:42.519Z,542.05825
2023-05-06T21:31:43.841Z,530.66667
2023-05-06T21:36:45.125Z,542.05825
2023-05-06T21:41:46.560Z,525.13208
2023-05-06T21:46:48.008Z,536.30769
2023-05-06T21:51:49.408Z,572.57143
2023-05-06T21:56:50.873Z,592.42105
2023-05-06T22:01:52.344Z,606.36559
2023-05-06T22:06:53.744Z,599.31915
2023-05-06T22:11:55.017Z,613.56522
2023-05-06T22:16:56.807Z,686.16867
2023-05-06T22:21:58.118Z,776.43243
2023-05-06T22:26:59.403Z,765.33333
2023-05-06T22:32:00.878Z,787.83562
2023-05-06T22:37:02.406Z,787.83562
2023-05-06T22:42:03.996Z,849.88235
2023-05-06T22:47:05.252Z,921.77778
2023-05-06T22:52:06.480Z,988.0678
2023-05-06T22:57:07.841Z,877.33333
2023-05-06T23:02:09.179Z,1064
2023-05-06T23:07:10.475Z,1024.70175
2023-05-06T23:12:11.814Z,891.69231
2023-05-06T23:17:13.138Z,1106.26415
2023-05-06T23:22:14.514Z,1176
2023-05-06T23:27:16.031Z,1312.88889
2023-05-06T23:32:17.268Z,1344
2023-05-06T23:37:18.566Z,1283.13043
2023-05-06T23:42:19.894Z,1227.33333
2023-05-06T23:47:21.674Z,1201.14286
2023-05-06T23:52:23.081Z,1283.13043
2023-05-06T23:57:24.456Z,1254.6383
